Aktualne dane pomiarowe

Uwaga, wersja testowa! Automatyczne pobieranie danych za pomocą narzędzi lub skryptów to umożliwiających jest zabronione.

Dane meteo z obszaru Polski uzyskane na podstawie depesz SYNOP pobieranych co godzinę z NWS. Najedź myszką na symbol przedstawiony w tabeli, aby uzyskać informacje co do jego znaczenia. Prosimy pamiętać, że to testowa wersja strony, która jeszcze nie jest ukończona. Stworzono również jest krótki FAQ dotyczący korzystania z tej podstrony Anomalie temperatury w chwili obecnej odniesione są do okresu referencyjnego 1951-2016. Okres ten będzie później zmieniony na 1981-2010. Kliknij ikonę aby pobrać plik CSV. Kliknij ikonę aby wygenerować mapę synoptyczną dla danego terminu.

Wybierz Datę:    

        

Śnieżka (12510)

Dane terminowe dla wybranej stacji. Kliknij datę, aby otrzymać dane z tego terminu dla wszystkich stacji.

TemperaturaZachmurzenieWiatrCiśnienieOpadyPogoda
 Data t td wb tx tn tg rh  Nt Nl Cl Cm Ch ws wd g1 g2 wx mslp ppp ch 24h 12h t ww ww w1 w2  
2019-07-12 23:00:00 7.8 6.4 6.8--- 9130.0wxwxwx3wx---- 833.8 -0.1---------
2019-07-12 22:00:00 7.2 7.1 7.1--- 9930.0wxwxwx3wx---- 833.9 -0.1---------
2019-07-12 21:00:00 7.8 7.0 7.2--- 9530.0wxwxwx8wx---- 834.0 -0.1---wx-w1--
2019-07-12 20:00:00 7.9 7.1 7.3--- 9530.0wxwxwx8wx---- 833.9 -0.2---wx---
2019-07-12 19:00:00 7.4 7.1 7.1--- 980.1wxwxwx8wx---- 834.0 -0.1---wx---
2019-07-12 18:00:00 8.4 6.5 7.1 9.4 6.7- 8830.0wxwxwxwxwx7wx---- 834.1 -0.1- 10.012wx-w1w2--
2019-07-12 17:00:00 8.0 6.5 7.0--- 9030.0wxwxwx7wx---- 834.1 -0.2---------
2019-07-12 16:00:00 7.8 7.2 7.3--- 9620.0wxwxwxwxwx5wx---- 834.1 -0.2---------
2019-07-12 15:00:00 7.7 7.6 7.6--- 9915.0wxwxwx5wx---- 834.2 -0.1---wx-w1w2--
2019-07-12 14:00:00 8.1 8.0 8.0--- 9920.0wxwxwx5wx---- 834.3 -0.2---------
2019-07-12 13:00:00 8.9 8.8 8.8--- 9940.0wxwxwxwx4wx---- 834.3 -0.1---wx-w1--
2019-07-12 12:00:00 7.0 6.9 6.9--- 990.9wxwxwx3wx---- 834.3 -0.2- 7.06wx-w1w2--
2019-07-12 11:00:00 7.0 6.9 6.9--- 990.1wx-3wx---- 834.5 0.0---wx-w1w2--
2019-07-12 10:00:00 7.3 7.2 7.2--- 990.1wx-3wx---- 834.4 -0.2---wx-w1w2--
2019-07-12 09:00:00 7.5 7.4 7.4--- 990.1wx-2wx---- 834.5 -0.1---wx-w1--
2019-07-12 08:00:00 7.2 7.1 7.1--- 990.1wx-3wx---- 834.5 -0.1---wx-w1w2--
2019-07-12 07:00:00 7.3 7.2 7.2--- 990.1wx-2wx---- 834.6 -0.2---wx-w1w2--
2019-07-12 06:00:00 7.5 7.2 7.2 9.5 7.3- 980.1wx-3wx---- 834.6 -0.3- 0.012wx-- 9.6
2019-07-12 05:00:00 7.4 7.0 7.1--- 9720.0wx-wxwx4wx---- 834.6 -0.5---------
2019-07-12 04:00:00 7.9 4.7 5.9--- 8040.0wx-wxwx1wx---- 834.8 -0.7---------
2019-07-12 03:00:00 7.7 4.5 5.7--- 8040.0wx-wx2wx---- 834.9 -0.8---------
2019-07-12 02:00:00 7.9 4.5 5.8--- 7950.0wx-wxwx2wx---- 835.1 -1.1---------
2019-07-12 01:00:00 8.3 2.5 5.1--- 6750.0wx-wxwx3wx---- 835.5 -0.9---------
2019-07-12 00:00:00 8.3 2.9 5.3--- 6950.0wx-wxwx3wx---- 835.7 -0.7- 0.06------
2019-07-11 23:00:00 8.4 2.6 5.2--- 6750.0wx-wxwx1wx---- 836.2 -0.3---------
2019-07-11 22:00:00 8.5 2.9 5.4--- 6850.0wx-wxwx2wx---- 836.4 0.0---------
2019-07-11 21:00:00 8.8 2.4 5.3--- 6450.0wxwxwxwxwx4wx---- 836.4 0.0---------
2019-07-11 20:00:00 9.1 2.2 5.4--- 6250.0wxwxwxwxwx3wx---- 836.5 0.2---------
2019-07-11 19:00:00 9.4 2.3 5.6--- 6150.0wxwxwxwx2wx---- 836.4 0.2---------
2019-07-11 18:00:00 9.3 2.2 5.5 10.4 4.1- 6150.0wxwxwxwx3wx---- 836.4 0.0- 0.012------
2019-07-11 17:00:00 9.8 1.9 5.6--- 5850.0wxwxwxwx4wx---- 836.3 -0.2---------
2019-07-11 16:00:00 9.7 1.6 5.5--- 5750.0wxwxwxwx5wx---- 836.2 -0.3---------
2019-07-11 15:00:00 9.7 1.8 5.6--- 5850.0wxwxwx4wx---- 836.4 0.1---------
2019-07-11 14:00:00 9.4 2.0 5.5--- 6050.0wxwxwx4wx---- 836.5 -0.2---------
2019-07-11 13:00:00 8.8 1.9 5.1--- 6250.0wxwxwx5wx---- 836.5 -0.1---------
2019-07-11 12:00:00 8.4 3.0 5.4--- 6950.0wxwxwx7wx---- 836.3 -0.2- 0.06wx-w1--
2019-07-11 11:00:00 7.4 3.3 5.0--- 7550.0wxwxwx8wx---- 836.7 0.8---------
2019-07-11 10:00:00 6.5 5.3 5.7--- 9250.0wxwxwx7wx---- 836.6 0.9---------
2019-07-11 09:00:00 6.3 6.0 6.0--- 9850.0wxwxwx8wx---- 836.5 0.9---wx-w1--
2019-07-11 08:00:00 5.5 5.5 5.4--- 10050.0wxwxwxwxwx10wx---- 835.9 0.3---wx---
2019-07-11 07:00:00 4.8 4.8 4.7--- 1000.9wxwxwx10wx---- 835.7 0.2---wx-w1w2--
2019-07-11 06:00:00 4.7 4.7 4.6 6.7 4.4- 1000.1wx-10wx---- 835.6 0.0 0.4 0.412wx-w1w2- 6.0
2019-07-11 05:00:00 4.6 4.6 4.5--- 1000.1wx-10wx---- 835.6 -0.2---wx-w1w2--
2019-07-11 04:00:00 4.7 4.7 4.6--- 1000.9wxwxwx12wx---- 835.5 -0.2---wx-w1w2--
2019-07-11 03:00:00 4.7 4.7 4.6--- 1000.1wx-11wx---- 835.6 -0.6---wx-w1w2--
2019-07-11 02:00:00 4.9 4.9 4.8--- 1000.1wx-13wx---- 835.8 -1.0---wx-w1w2--
2019-07-11 01:00:00 5.0 5.0 4.9--- 1000.1wx-15wx---- 835.7 -1.3---wx-w1w2--
2019-07-11 00:00:00 5.0 5.0 4.9--- 1000.1wx-15wx---- 836.2 -1.1- 0.06wx---
1.7 ms

 

Print Friendly, PDF & Email